createdAt,value
2022-10-10T00:02:26.066Z,3.47
2022-10-10T00:05:27.697Z,7.90
2022-10-10T00:08:29.084Z,4.80
2022-10-10T00:11:30.614Z,3.50
2022-10-10T00:14:32.659Z,4.43
2022-10-10T00:17:34.099Z,4.23
2022-10-10T00:20:35.503Z,3.77
2022-10-10T00:23:38.149Z,3.00
2022-10-10T00:26:39.533Z,4.50
2022-10-10T00:29:40.969Z,4.07
2022-10-10T00:32:42.355Z,5.63
2022-10-10T00:35:43.835Z,4.70
2022-10-10T00:38:45.231Z,6.43
2022-10-10T00:41:46.903Z,4.50
2022-10-10T00:45:26.622Z,4.33
2022-10-10T00:48:29.825Z,4.03
2022-10-10T00:51:31.407Z,4.10
2022-10-10T00:54:33.587Z,2.73
2022-10-10T00:57:35.036Z,5.63
2022-10-10T01:00:36.721Z,4.87
2022-10-10T01:03:39.418Z,3.53
2022-10-10T01:06:41.018Z,4.00
2022-10-10T01:09:45.666Z,4.87
2022-10-10T01:12:54.070Z,3.37
2022-10-10T01:16:10.834Z,3.43
2022-10-10T01:19:14.994Z,4.43
2022-10-10T01:22:38.254Z,3.80
2022-10-10T01:26:16.433Z,2.80
2022-10-10T01:29:32.681Z,4.10
2022-10-10T01:32:38.030Z,3.03
2022-10-10T01:35:50.620Z,4.30
2022-10-10T01:38:58.988Z,2.20
2022-10-10T01:42:07.965Z,3.63
2022-10-10T01:45:09.546Z,3.10
2022-10-10T01:48:10.934Z,5.37
2022-10-10T01:51:37.898Z,3.37
2022-10-10T01:55:18.637Z,4.43
2022-10-10T01:58:26.038Z,5.47
2022-10-10T02:01:40.742Z,3.47
2022-10-10T02:04:51.504Z,6.63
2022-10-10T02:08:12.076Z,3.00
2022-10-10T02:11:13.535Z,3.63
2022-10-10T02:14:20.473Z,3.97
2022-10-10T02:17:25.950Z,5.23
2022-10-10T02:20:30.267Z,3.50
2022-10-10T02:23:31.980Z,6.50
2022-10-10T02:26:33.604Z,4.33
2022-10-10T02:29:38.022Z,5.03
2022-10-10T02:32:45.256Z,3.33
2022-10-10T02:35:49.383Z,6.83
2022-10-10T02:38:52.660Z,6.53
2022-10-10T02:41:54.042Z,4.50
2022-10-10T02:44:56.762Z,3.80
2022-10-10T02:47:58.412Z,3.70
2022-10-10T02:50:59.901Z,4.60
2022-10-10T02:54:01.293Z,6.03
2022-10-10T02:57:02.693Z,4.20
2022-10-10T03:00:05.771Z,4.23
2022-10-10T03:03:07.145Z,5.00
2022-10-10T03:06:08.532Z,5.33
2022-10-10T03:09:09.939Z,6.33
2022-10-10T03:12:11.434Z,3.50
2022-10-10T03:15:12.860Z,7.60
2022-10-10T03:18:14.316Z,8.40
2022-10-10T03:21:15.894Z,3.70
2022-10-10T03:24:17.284Z,5.87
2022-10-10T03:27:18.659Z,5.57
2022-10-10T03:30:20.044Z,8.00
2022-10-10T03:33:21.953Z,3.10
2022-10-10T03:36:23.630Z,5.47
2022-10-10T03:39:25.040Z,6.67
2022-10-10T03:42:26.457Z,3.27
2022-10-10T03:45:27.834Z,4.13
2022-10-10T03:48:29.261Z,4.27
2022-10-10T03:51:30.658Z,4.67
2022-10-10T03:54:32.057Z,7.40
2022-10-10T03:57:33.650Z,3.13
2022-10-10T04:00:35.123Z,4.70
2022-10-10T04:03:36.574Z,4.80
2022-10-10T04:06:38.098Z,5.40
2022-10-10T04:09:39.631Z,3.40
2022-10-10T04:12:41.069Z,5.17
2022-10-10T04:15:42.501Z,4.93
2022-10-10T04:18:43.890Z,5.07
2022-10-10T04:21:45.318Z,4.63
2022-10-10T04:24:46.810Z,6.43
2022-10-10T04:27:48.198Z,5.10
2022-10-10T04:30:49.858Z,7.73
2022-10-10T04:33:51.233Z,4.23
2022-10-10T04:36:52.700Z,6.53
2022-10-10T04:39:54.086Z,4.13
2022-10-10T04:42:55.697Z,5.20
2022-10-10T04:45:58.368Z,3.83
2022-10-10T04:48:59.811Z,5.27
2022-10-10T04:52:01.214Z,6.90
2022-10-10T04:55:02.667Z,5.53
2022-10-10T04:58:04.082Z,4.97
2022-10-10T05:01:05.744Z,4.60
2022-10-10T05:04:07.239Z,4.50
2022-10-10T05:07:08.746Z,5.47
2022-10-10T05:10:10.174Z,4.93
2022-10-10T05:13:13.628Z,7.23
2022-10-10T05:16:15.318Z,9.07
2022-10-10T05:19:16.713Z,5.97
2022-10-10T05:22:18.088Z,5.07
2022-10-10T05:25:19.806Z,4.20
2022-10-10T05:28:21.227Z,6.93
2022-10-10T05:31:22.661Z,5.67
2022-10-10T05:34:24.042Z,5.43
2022-10-10T05:37:25.506Z,5.27
2022-10-10T05:40:27.238Z,5.43
2022-10-10T05:43:28.801Z,4.63
2022-10-10T05:46:30.214Z,6.37
2022-10-10T05:49:31.604Z,7.07
2022-10-10T05:52:35.097Z,6.13
2022-10-10T05:55:36.672Z,5.23
2022-10-10T05:58:38.549Z,6.97
2022-10-10T06:01:39.962Z,6.57
2022-10-10T06:04:41.404Z,6.00
2022-10-10T06:08:03.444Z,7.50
2022-10-10T06:11:07.984Z,5.90
2022-10-10T06:14:10.256Z,8.57
2022-10-10T06:17:11.647Z,9.00
2022-10-10T06:20:13.036Z,6.60
2022-10-10T06:23:14.493Z,4.37
2022-10-10T06:26:15.952Z,5.27
2022-10-10T06:29:17.333Z,5.00
2022-10-10T06:32:18.932Z,4.57
2022-10-10T06:35:20.368Z,9.53
2022-10-10T06:38:21.876Z,5.17
2022-10-10T06:41:23.334Z,5.90
2022-10-10T06:44:24.724Z,10.60
2022-10-10T06:47:26.291Z,6.97
2022-10-10T06:50:27.686Z,7.03
2022-10-10T06:53:29.537Z,6.73
2022-10-10T06:56:31.735Z,5.70
2022-10-10T06:59:33.235Z,4.53
2022-10-10T07:02:34.771Z,6.67
2022-10-10T07:05:36.168Z,6.30
2022-10-10T07:08:38.925Z,5.83
2022-10-10T07:11:45.175Z,5.80
2022-10-10T07:14:46.620Z,8.40
2022-10-10T07:17:53.383Z,6.50
2022-10-10T07:20:57.421Z,8.63
2022-10-10T07:23:58.913Z,5.87
2022-10-10T07:27:06.308Z,12.37
2022-10-10T07:30:09.725Z,12.97
2022-10-10T07:33:13.006Z,9.40
2022-10-10T07:36:14.614Z,8.03
2022-10-10T07:39:24.157Z,9.77
2022-10-10T07:42:25.590Z,5.80
2022-10-10T07:45:27.138Z,6.53
2022-10-10T07:48:29.680Z,6.80
2022-10-10T07:51:31.166Z,5.43
2022-10-10T07:54:33.041Z,6.83
2022-10-10T07:57:35.222Z,6.13
2022-10-10T08:00:37.450Z,8.73
2022-10-10T08:03:39.757Z,5.53
2022-10-10T08:06:41.217Z,6.07
2022-10-10T08:09:42.603Z,6.43
2022-10-10T08:12:44.844Z,9.53
2022-10-10T08:15:50.996Z,6.97
2022-10-10T08:18:52.422Z,12.27
2022-10-10T08:21:53.858Z,6.13
2022-10-10T08:24:55.481Z,10.03
2022-10-10T08:27:56.863Z,7.10
2022-10-10T08:31:00.911Z,6.17
2022-10-10T08:34:03.476Z,6.57
2022-10-10T08:37:04.889Z,6.07
2022-10-10T08:40:07.213Z,6.97
2022-10-10T08:43:12.712Z,6.43
2022-10-10T08:46:19.573Z,7.80
2022-10-10T08:49:46.396Z,6.67
2022-10-10T08:52:54.149Z,5.83
2022-10-10T08:55:55.909Z,3.90
2022-10-10T08:59:05.028Z,11.73
2022-10-10T09:02:43.670Z,5.40
2022-10-10T09:06:03.117Z,11.83
2022-10-10T09:09:11.034Z,7.47
2022-10-10T09:12:37.232Z,6.83
2022-10-10T09:15:52.067Z,10.50
2022-10-10T09:19:24.263Z,5.77
2022-10-10T09:22:30.746Z,13.17
2022-10-10T09:25:56.185Z,6.73
2022-10-10T09:29:04.154Z,8.73
2022-10-10T09:32:30.396Z,8.33
2022-10-10T09:35:37.574Z,9.70
2022-10-10T09:38:46.891Z,6.43
2022-10-10T09:41:59.448Z,6.07
2022-10-10T09:45:01.505Z,7.23
2022-10-10T09:48:03.513Z,6.87
2022-10-10T09:51:08.862Z,10.33
2022-10-10T09:54:11.285Z,8.23
2022-10-10T09:57:15.885Z,6.97
2022-10-10T10:00:20.001Z,8.80
2022-10-10T10:03:22.811Z,7.90
2022-10-10T10:06:25.434Z,7.57
2022-10-10T10:09:26.879Z,7.00
2022-10-10T10:12:39.951Z,6.90
2022-10-10T10:15:48.709Z,6.33
2022-10-10T10:18:50.085Z,9.00
2022-10-10T10:21:52.527Z,3.93
2022-10-10T10:24:54.844Z,7.03
2022-10-10T10:28:11.616Z,5.37
2022-10-10T10:31:24.408Z,5.80
2022-10-10T10:34:41.072Z,4.10
2022-10-10T10:38:13.886Z,5.47
2022-10-10T10:41:38.648Z,8.50
2022-10-10T10:45:03.322Z,6.53
2022-10-10T10:48:26.585Z,7.00
2022-10-10T10:51:46.234Z,5.60
2022-10-10T10:55:08.963Z,9.83
2022-10-10T10:59:09.932Z,6.33
2022-10-10T11:02:26.041Z,4.93
2022-10-10T11:05:41.991Z,7.30
2022-10-10T11:08:50.900Z,7.50
2022-10-10T11:12:17.317Z,7.80
2022-10-10T11:15:54.042Z,6.83
2022-10-10T11:19:08.701Z,7.43
2022-10-10T11:22:25.260Z,6.63
2022-10-10T11:25:32.622Z,7.73
2022-10-10T11:28:41.257Z,5.70
2022-10-10T11:31:53.441Z,7.23
2022-10-10T11:35:34.014Z,6.33
2022-10-10T11:38:39.685Z,6.77
2022-10-10T11:42:02.973Z,6.83
2022-10-10T11:45:13.127Z,6.27
2022-10-10T11:48:43.135Z,6.50
2022-10-10T11:52:21.539Z,5.77
2022-10-10T11:55:47.176Z,8.27
2022-10-10T11:58:56.426Z,5.90
2022-10-10T12:02:01.644Z,6.37
2022-10-10T12:05:06.054Z,7.43
2022-10-10T12:08:18.102Z,6.43
2022-10-10T12:11:28.158Z,11.63
2022-10-10T12:14:31.453Z,9.57
2022-10-10T12:17:42.486Z,10.33
2022-10-10T12:20:43.994Z,11.53
2022-10-10T12:24:10.918Z,8.27
2022-10-10T12:27:27.708Z,8.20
2022-10-10T12:30:29.490Z,8.63
2022-10-10T12:33:30.816Z,8.83
2022-10-10T12:36:32.129Z,7.20
2022-10-10T12:39:36.084Z,7.80
2022-10-10T12:42:40.032Z,7.77
2022-10-10T12:45:41.348Z,11.53
2022-10-10T12:48:43.584Z,9.83
2022-10-10T12:51:59.730Z,11.20
2022-10-10T12:55:09.410Z,8.27
2022-10-10T12:58:26.450Z,9.17
2022-10-10T13:01:35.872Z,7.63
2022-10-10T13:04:42.845Z,8.33
2022-10-10T13:07:48.029Z,10.20
2022-10-10T13:11:05.344Z,9.03
2022-10-10T13:14:08.268Z,8.20
2022-10-10T13:17:25.580Z,9.03
2022-10-10T13:20:37.450Z,10.30
2022-10-10T13:27:24.981Z,9.57
2022-10-10T13:30:26.796Z,10.67
2022-10-10T13:33:33.418Z,8.10
2022-10-10T13:36:35.301Z,9.50
2022-10-10T13:39:38.488Z,10.93
2022-10-10T13:42:40.529Z,9.23
2022-10-10T13:45:44.958Z,10.40
2022-10-10T13:48:46.465Z,11.30
2022-10-10T13:51:49.714Z,7.90
2022-10-10T13:54:51.107Z,11.17
2022-10-10T13:58:01.499Z,6.40
2022-10-10T14:01:04.519Z,8.77
2022-10-10T14:04:12.334Z,10.33
2022-10-10T14:07:19.994Z,12.53
2022-10-10T14:10:25.672Z,12.80
2022-10-10T14:13:29.130Z,9.97
2022-10-10T14:16:30.635Z,10.67
2022-10-10T14:19:33.147Z,11.63
2022-10-10T14:22:34.537Z,7.00
2022-10-10T14:25:41.650Z,11.90
2022-10-10T14:28:43.596Z,11.83
2022-10-10T14:31:46.166Z,10.50
2022-10-10T14:34:47.926Z,12.80
2022-10-10T14:37:49.356Z,13.90
2022-10-10T14:40:51.888Z,12.77
2022-10-10T14:43:53.290Z,8.50
2022-10-10T14:46:54.765Z,16.00
2022-10-10T14:49:57.833Z,11.53
2022-10-10T14:52:59.718Z,12.30
2022-10-10T14:56:01.098Z,13.10
2022-10-10T14:59:02.508Z,12.13
2022-10-10T15:02:03.921Z,11.73
2022-10-10T15:05:06.009Z,12.17
2022-10-10T15:08:07.573Z,11.03
2022-10-10T15:11:15.128Z,11.17
2022-10-10T15:14:16.591Z,9.70
2022-10-10T15:17:18.406Z,12.57
2022-10-10T15:20:20.601Z,14.87
2022-10-10T15:23:22.316Z,14.23
2022-10-10T15:26:23.871Z,17.23
2022-10-10T15:29:25.256Z,10.77
2022-10-10T15:32:26.805Z,10.37
2022-10-10T15:35:39.982Z,15.47
2022-10-10T15:38:49.836Z,10.80
2022-10-10T15:41:51.262Z,16.57
2022-10-10T15:44:52.719Z,11.33
2022-10-10T15:47:54.128Z,10.33
2022-10-10T15:50:55.611Z,12.07
2022-10-10T15:53:58.686Z,8.30
2022-10-10T15:57:00.094Z,10.57
2022-10-10T16:00:01.900Z,12.67
2022-10-10T16:03:13.718Z,9.10
2022-10-10T16:06:17.238Z,15.87
2022-10-10T16:09:28.100Z,8.17
2022-10-10T16:12:30.364Z,12.23
2022-10-10T16:15:32.299Z,11.07
2022-10-10T16:18:40.050Z,15.77
2022-10-10T16:21:42.114Z,6.83
2022-10-10T16:24:53.902Z,8.43
2022-10-10T16:28:05.014Z,9.33
2022-10-10T16:31:08.901Z,13.00
2022-10-10T16:34:10.357Z,8.57
2022-10-10T16:37:11.763Z,8.83
2022-10-10T16:40:13.200Z,8.70
2022-10-10T16:43:16.932Z,10.07
2022-10-10T16:46:20.944Z,17.00
2022-10-10T16:49:23.288Z,10.63
2022-10-10T16:52:24.707Z,8.90
2022-10-10T16:55:26.091Z,11.93
2022-10-10T16:58:28.503Z,7.70
2022-10-10T17:01:30.142Z,11.93
2022-10-10T17:04:31.599Z,15.00
2022-10-10T17:07:34.923Z,11.40
2022-10-10T17:10:36.369Z,10.80
2022-10-10T17:13:38.400Z,13.57
2022-10-10T17:20:02.029Z,9.30
2022-10-10T17:23:03.543Z,10.90
2022-10-10T17:26:14.903Z,12.37
2022-10-10T17:29:16.466Z,12.10
2022-10-10T17:32:18.232Z,8.47
2022-10-10T17:35:19.683Z,6.80
2022-10-10T17:38:38.948Z,11.30
2022-10-10T17:41:41.027Z,11.23
2022-10-10T17:44:49.569Z,18.40
2022-10-10T17:47:53.824Z,16.77
2022-10-10T17:50:55.674Z,19.07
2022-10-10T17:53:59.341Z,12.43
2022-10-10T17:57:00.772Z,16.33
2022-10-10T18:00:02.809Z,14.40
2022-10-10T18:03:08.930Z,15.00
2022-10-10T18:06:13.101Z,10.13
2022-10-10T18:09:14.537Z,12.07
2022-10-10T18:12:15.941Z,9.83
2022-10-10T18:15:17.429Z,15.33
2022-10-10T18:18:19.126Z,13.67
2022-10-10T18:21:22.671Z,13.60
2022-10-10T18:24:24.134Z,14.93
2022-10-10T18:27:26.715Z,10.07
2022-10-10T18:30:29.764Z,12.43
2022-10-10T18:33:31.166Z,14.07
2022-10-10T18:36:36.034Z,10.43
2022-10-10T18:39:37.566Z,13.20
2022-10-10T18:42:39.514Z,11.37
2022-10-10T18:45:40.898Z,18.33
2022-10-10T18:48:42.648Z,11.87
2022-10-10T18:51:44.220Z,16.43
2022-10-10T18:54:47.462Z,11.33
2022-10-10T18:57:48.853Z,13.77
2022-10-10T19:00:50.408Z,10.83
2022-10-10T19:03:53.392Z,17.37
2022-10-10T19:06:57.669Z,14.53
2022-10-10T19:09:59.302Z,8.77
2022-10-10T19:13:00.696Z,13.83
2022-10-10T19:16:06.935Z,20.40
2022-10-10T19:19:10.193Z,15.33
2022-10-10T19:22:11.568Z,14.60
2022-10-10T19:25:12.973Z,14.80
2022-10-10T19:28:14.429Z,12.37
2022-10-10T19:31:18.946Z,16.77
2022-10-10T19:34:20.540Z,19.50
2022-10-10T19:37:21.904Z,15.20
2022-10-10T19:40:23.296Z,14.50
2022-10-10T19:43:24.878Z,15.60
2022-10-10T19:46:27.618Z,17.47
2022-10-10T19:49:30.143Z,14.63
2022-10-10T19:52:31.572Z,15.07
2022-10-10T19:55:33.400Z,12.90
2022-10-10T19:58:35.812Z,11.03
2022-10-10T20:01:37.301Z,12.17
2022-10-10T20:04:38.713Z,11.47
2022-10-10T20:07:40.126Z,10.87
2022-10-10T20:10:42.518Z,9.93
2022-10-10T20:13:44.336Z,10.63
2022-10-10T20:16:45.797Z,11.10
2022-10-10T20:19:47.486Z,11.63
2022-10-10T20:22:48.891Z,13.43
2022-10-10T20:25:50.822Z,9.57
2022-10-10T20:28:53.393Z,10.30
2022-10-10T20:31:54.804Z,12.20
2022-10-10T20:34:56.206Z,10.50
2022-10-10T20:37:57.757Z,7.30
2022-10-10T20:41:03.038Z,8.57
2022-10-10T20:44:06.675Z,11.63
2022-10-10T20:47:08.106Z,10.77
2022-10-10T20:50:09.742Z,12.83
2022-10-10T20:53:11.823Z,9.83
2022-10-10T20:56:13.241Z,9.87
2022-10-10T20:59:14.663Z,13.83
2022-10-10T21:02:19.360Z,10.50
2022-10-10T21:05:21.008Z,11.10
2022-10-10T21:08:22.385Z,8.60
2022-10-10T21:11:24.889Z,11.97
2022-10-10T21:14:26.353Z,10.63
2022-10-10T21:17:29.041Z,9.97
2022-10-10T21:20:30.412Z,8.70
2022-10-10T21:23:37.763Z,6.50
2022-10-10T21:26:42.653Z,8.10
2022-10-10T21:29:44.219Z,6.37
2022-10-10T21:32:45.601Z,7.80
2022-10-10T21:35:49.811Z,7.80
2022-10-10T21:38:51.232Z,8.60
2022-10-10T21:41:52.612Z,6.77
2022-10-10T21:44:53.996Z,7.37
2022-10-10T21:47:55.394Z,8.37
2022-10-10T21:50:58.187Z,9.83
2022-10-10T21:53:59.595Z,13.67
2022-10-10T21:57:00.989Z,7.80
2022-10-10T22:00:02.883Z,7.67
2022-10-10T22:03:06.618Z,9.00
2022-10-10T22:06:11.557Z,8.90
2022-10-10T22:09:12.937Z,11.20
2022-10-10T22:12:15.821Z,12.63
2022-10-10T22:15:17.685Z,10.03
2022-10-10T22:18:19.185Z,11.80
2022-10-10T22:21:20.677Z,10.00
2022-10-10T22:24:22.133Z,7.97
2022-10-10T22:27:23.517Z,9.60
2022-10-10T22:30:24.912Z,10.43
2022-10-10T22:33:26.300Z,9.67
2022-10-10T22:36:27.721Z,11.33
2022-10-10T22:39:29.178Z,9.23
2022-10-10T22:42:30.822Z,9.50
2022-10-10T22:45:32.290Z,14.63
2022-10-10T22:48:33.730Z,12.13
2022-10-10T22:51:35.177Z,11.00
2022-10-10T22:54:36.554Z,9.10
2022-10-10T22:57:37.985Z,11.97
2022-10-10T23:00:40.400Z,9.50
2022-10-10T23:03:42.589Z,11.10
2022-10-10T23:06:44.080Z,9.63
2022-10-10T23:09:46.632Z,11.17
2022-10-10T23:12:48.146Z,15.03
2022-10-10T23:15:49.563Z,12.43
2022-10-10T23:18:51.045Z,15.17
2022-10-10T23:21:52.471Z,12.03
2022-10-10T23:24:53.854Z,12.00
2022-10-10T23:27:55.265Z,11.93
2022-10-10T23:31:01.300Z,12.57
2022-10-10T23:34:02.722Z,9.97
2022-10-10T23:37:04.138Z,13.33
2022-10-10T23:40:06.610Z,13.07
2022-10-10T23:43:10.461Z,9.23
2022-10-10T23:46:13.052Z,14.60
2022-10-10T23:49:14.438Z,11.63
2022-10-10T23:52:15.904Z,9.70
2022-10-10T23:55:17.361Z,13.47
2022-10-10T23:58:18.733Z,12.30
